Time;durP1;ratioP1;P1;durP2;ratioP2;P2;SDS_P1;SDS_P2;PMS_P1;PMS_P2;Temp;Humidity;BMP_temperature;BMP_pressure;BME280_temperature;BME280_humidity;BME280_pressure;Samples;Min_cycle;Max_cycle;Signal;HPM_P1;HPM_P2
2021/10/24 00:02:01;;;;;;;6.45;3.13;;;22.50;81.60;;;;;;5073271;28;20025;-69
2021/10/24 00:04:29;;;;;;;8.82;3.25;;;22.50;82.90;;;;;;5073168;28;20471;-67
2021/10/24 00:06:56;;;;;;;9.00;3.38;;;22.50;81.50;;;;;;5072187;28;20043;-67
2021/10/24 00:09:23;;;;;;;8.23;3.17;;;22.60;81.90;;;;;;5073605;28;20444;-66
2021/10/24 00:11:51;;;;;;;11.20;3.35;;;22.60;81.70;;;;;;5073426;28;20351;-64
2021/10/24 00:14:19;;;;;;;6.00;2.90;;;22.60;82.70;;;;;;5071930;28;20371;-67
2021/10/24 00:16:47;;;;;;;13.63;3.50;;;22.70;82.30;;;;;;5072610;28;20097;-67
2021/10/24 00:19:14;;;;;;;11.13;3.55;;;22.70;81.70;;;;;;5072442;28;20510;-67
2021/10/24 00:21:41;;;;;;;10.65;3.38;;;22.70;81.60;;;;;;5072432;28;20032;-67
2021/10/24 00:24:09;;;;;;;6.80;2.80;;;22.70;79.70;;;;;;5072772;28;20036;-67
2021/10/24 00:26:36;;;;;;;9.32;3.17;;;22.80;81.00;;;;;;5072053;28;20495;-70
2021/10/24 00:29:04;;;;;;;8.48;3.17;;;22.80;82.10;;;;;;5072620;28;20028;-70
2021/10/24 00:31:31;;;;;;;11.02;3.55;;;22.90;81.00;;;;;;5073001;28;20368;-71
2021/10/24 00:33:59;;;;;;;10.07;3.28;;;22.90;81.00;;;;;;5072538;28;20043;-68
2021/10/24 00:36:26;;;;;;;11.65;3.88;;;22.90;77.50;;;;;;5072228;28;20502;-68
2021/10/24 00:38:54;;;;;;;9.73;2.92;;;22.90;80.40;;;;;;5072251;28;20459;-69
2021/10/24 00:41:21;;;;;;;7.25;2.97;;;22.90;82.00;;;;;;5072894;28;20031;-66
2021/10/24 00:43:49;;;;;;;10.02;2.92;;;23.00;81.10;;;;;;5064719;28;20036;-66
2021/10/24 00:46:16;;;;;;;10.25;3.60;;;23.00;81.20;;;;;;5067658;28;20041;-64
2021/10/24 00:48:43;;;;;;;8.68;3.17;;;23.10;77.90;;;;;;5068632;28;20379;-59
2021/10/24 00:51:13;;;;;;;9.93;3.30;;;23.20;80.30;;;;;;5068570;28;20114;-61
2021/10/24 00:53:41;;;;;;;8.45;2.95;;;23.30;77.50;;;;;;5069237;28;20048;-63
2021/10/24 00:56:09;;;;;;;13.35;3.70;;;23.30;80.60;;;;;;5069628;28;20868;-70
2021/10/24 00:58:38;;;;;;;9.02;3.92;;;23.40;78.90;;;;;;5068111;28;20048;-63
2021/10/24 01:01:06;;;;;;;6.55;2.65;;;23.50;77.20;;;;;;5066867;28;20106;-66
2021/10/24 01:03:33;;;;;;;6.43;2.63;;;23.50;79.60;;;;;;5069650;28;20029;-66
2021/10/24 01:06:01;;;;;;;15.30;3.63;;;23.50;78.20;;;;;;5068817;28;20020;-62
2021/10/24 01:08:29;;;;;;;7.78;2.90;;;23.50;78.30;;;;;;5068487;28;20025;-52
2021/10/24 01:10:56;;;;;;;7.43;3.03;;;23.50;76.00;;;;;;5065729;28;20056;-62
2021/10/24 01:13:24;;;;;;;6.55;2.65;;;23.50;77.20;;;;;;5070413;28;20020;-63
2021/10/24 01:15:51;;;;;;;10.60;3.63;;;23.60;78.30;;;;;;5070018;28;20024;-64
2021/10/24 01:18:19;;;;;;;10.82;3.42;;;23.60;78.50;;;;;;5067904;28;20029;-62
2021/10/24 01:20:49;;;;;;;7.88;3.10;;;23.60;77.90;;;;;;5067223;28;20041;-64
2021/10/24 01:23:17;;;;;;;8.95;3.28;;;23.60;77.50;;;;;;5069091;28;20048;-63
2021/10/24 01:25:44;;;;;;;8.75;3.35;;;23.60;78.80;;;;;;5069400;28;20139;-58
2021/10/24 01:28:12;;;;;;;9.50;2.80;;;23.60;78.50;;;;;;5069631;28;20498;-61
2021/10/24 01:30:40;;;;;;;11.27;2.78;;;23.60;77.70;;;;;;5067959;28;20055;-64
2021/10/24 01:33:09;;;;;;;8.90;3.03;;;23.60;79.80;;;;;;5067705;28;20028;-62
2021/10/24 01:35:36;;;;;;;10.38;3.42;;;23.70;78.40;;;;;;5070112;28;20025;-66
2021/10/24 01:38:04;;;;;;;7.93;3.13;;;23.70;79.50;;;;;;5069346;28;20025;-62
2021/10/24 01:40:31;;;;;;;6.80;2.05;;;23.70;78.90;;;;;;5068666;28;20036;-60
2021/10/24 01:42:58;;;;;;;9.75;3.03;;;23.70;78.00;;;;;;5067257;28;20157;-61
2021/10/24 01:45:29;;;;;;;7.13;2.55;;;23.70;76.00;;;;;;5069840;28;20483;-61
2021/10/24 01:47:56;;;;;;;10.18;2.97;;;23.70;76.10;;;;;;5068794;28;20028;-64
2021/10/24 01:50:24;;;;;;;5.00;2.20;;;23.80;77.90;;;;;;5070779;28;20024;-69
2021/10/24 01:52:51;;;;;;;6.05;2.40;;;23.80;76.90;;;;;;5070796;28;20126;-71
2021/10/24 01:55:20;;;;;;;7.75;2.67;;;23.80;78.50;;;;;;5071062;28;20028;-69
2021/10/24 01:57:50;;;;;;;7.53;2.60;;;23.80;77.60;;;;;;5070926;28;20024;-71
2021/10/24 02:00:21;;;;;;;7.80;2.33;;;23.80;75.90;;;;;;5072547;28;20367;-70
2021/10/24 02:02:48;;;;;;;8.32;2.47;;;23.90;77.10;;;;;;5072343;28;20048;-68
2021/10/24 02:05:16;;;;;;;8.02;2.35;;;23.90;76.60;;;;;;5071990;28;20035;-70
2021/10/24 02:07:43;;;;;;;11.40;3.28;;;23.90;75.20;;;;;;5062647;28;20024;-62
2021/10/24 02:10:13;;;;;;;18.00;3.90;;;23.90;75.30;;;;;;5067987;28;21219;-64
2021/10/24 02:12:41;;;;;;;14.93;5.60;;;24.00;73.80;;;;;;5067278;28;20020;-60
2021/10/24 02:15:12;;;;;;;7.45;4.30;;;24.00;76.40;;;;;;5068143;28;20029;-67
2021/10/24 02:17:39;;;;;;;11.82;6.47;;;24.00;76.60;;;;;;5065730;28;20024;-63
2021/10/24 02:20:09;;;;;;;13.93;6.88;;;24.10;76.10;;;;;;5068094;28;20071;-52
2021/10/24 02:22:37;;;;;;;20.17;14.80;;;24.10;76.00;;;;;;5068433;28;20033;-60
2021/10/24 02:25:06;;;;;;;20.55;12.70;;;24.10;71.10;;;;;;5070469;28;20028;-58
2021/10/24 02:27:34;;;;;;;17.95;7.80;;;24.20;69.80;;;;;;5071114;28;20029;-60
2021/10/24 02:30:02;;;;;;;19.17;10.80;;;24.20;70.50;;;;;;5071467;28;20043;-58
2021/10/24 02:32:29;;;;;;;13.20;9.50;;;24.20;69.40;;;;;;5070733;28;20029;-60
2021/10/24 02:34:56;;;;;;;24.48;14.02;;;24.10;66.10;;;;;;5071218;28;20108;-57
2021/10/24 02:37:24;;;;;;;13.63;6.05;;;24.10;66.20;;;;;;5073964;28;20031;-69
2021/10/24 02:39:51;;;;;;;20.00;9.65;;;23.70;61.00;;;;;;5074855;28;20031;-70
2021/10/24 02:42:19;;;;;;;23.83;6.57;;;23.50;70.10;;;;;;5074908;28;20044;-68
2021/10/24 02:44:46;;;;;;;14.45;5.03;;;23.50;64.00;;;;;;5075241;28;20485;-73
2021/10/24 02:47:17;;;;;;;19.38;7.65;;;23.40;72.40;;;;;;5074644;28;20112;-71
2021/10/24 02:49:45;;;;;;;11.95;5.45;;;23.50;65.20;;;;;;5073048;28;20514;-70
2021/10/24 02:52:12;;;;;;;16.20;5.47;;;23.30;63.50;;;;;;5074479;28;20044;-66
2021/10/24 02:54:39;;;;;;;13.23;6.32;;;23.40;64.80;;;;;;5074882;28;20059;-68
2021/10/24 02:57:06;;;;;;;16.98;7.82;;;23.60;69.60;;;;;;5074839;28;20028;-69
2021/10/24 02:59:34;;;;;;;12.77;3.33;;;23.60;75.40;;;;;;5074422;28;20092;-70
2021/10/24 03:02:02;;;;;;;12.35;6.20;;;23.60;61.80;;;;;;5074302;28;20024;-70
2021/10/24 03:04:30;;;;;;;10.27;3.83;;;23.40;62.40;;;;;;5073705;28;20020;-67
2021/10/24 03:06:57;;;;;;;14.48;7.20;;;23.30;67.20;;;;;;5074058;28;20020;-73
2021/10/24 03:09:25;;;;;;;13.95;6.25;;;23.50;75.20;;;;;;5073483;28;20038;-70
2021/10/24 03:11:53;;;;;;;13.07;4.97;;;23.50;67.70;;;;;;5074168;28;20054;-70
2021/10/24 03:14:20;;;;;;;12.90;3.65;;;23.70;63.30;;;;;;5074416;28;20020;-64
2021/10/24 03:16:48;;;;;;;9.73;3.55;;;23.80;69.30;;;;;;5074630;28;20028;-70
2021/10/24 03:19:16;;;;;;;7.53;2.63;;;23.80;69.40;;;;;;5075231;28;20024;-67
2021/10/24 03:21:43;;;;;;;14.13;4.38;;;23.60;61.60;;;;;;5075002;28;20040;-65
2021/10/24 03:24:11;;;;;;;11.13;4.38;;;23.70;68.20;;;;;;5074108;28;20028;-61
2021/10/24 03:26:38;;;;;;;9.32;3.42;;;24.00;69.90;;;;;;5074150;28;20101;-59
2021/10/24 03:29:05;;;;;;;10.70;3.83;;;24.30;73.50;;;;;;5074356;28;20111;-60
2021/10/24 03:31:33;;;;;;;13.35;4.10;;;24.40;73.10;;;;;;5074033;28;20055;-68
2021/10/24 03:34:00;;;;;;;9.82;3.45;;;24.50;69.90;;;;;;5073695;28;20377;-63
2021/10/24 03:36:27;;;;;;;14.82;3.88;;;24.60;71.10;;;;;;5073916;28;20031;-63
2021/10/24 03:38:55;;;;;;;10.55;3.53;;;24.60;71.70;;;;;;5074116;28;20108;-67
2021/10/24 03:41:22;;;;;;;9.90;2.97;;;24.70;70.50;;;;;;5074206;28;20275;-67
2021/10/24 03:43:50;;;;;;;7.78;3.05;;;24.70;71.00;;;;;;5074017;28;20062;-67
2021/10/24 03:46:17;;;;;;;9.07;2.88;;;24.70;70.10;;;;;;5073793;28;20070;-66
2021/10/24 03:48:44;;;;;;;9.40;2.97;;;24.70;67.20;;;;;;5073197;28;20024;-64
2021/10/24 03:51:12;;;;;;;8.27;2.63;;;24.60;64.80;;;;;;5073636;28;20175;-65
2021/10/24 03:53:39;;;;;;;8.70;2.38;;;24.70;67.50;;;;;;5073862;28;20450;-63
2021/10/24 03:56:07;;;;;;;11.40;2.97;;;24.70;67.50;;;;;;5073526;28;20025;-65
2021/10/24 03:58:34;;;;;;;18.40;3.28;;;24.70;68.20;;;;;;5073575;28;20031;-66
2021/10/24 04:01:01;;;;;;;18.75;2.67;;;24.70;67.90;;;;;;5073254;28;20040;-63
2021/10/24 04:03:30;;;;;;;14.35;2.88;;;24.70;66.20;;;;;;5073343;28;20050;-67
2021/10/24 04:05:58;;;;;;;11.63;2.70;;;24.60;67.60;;;;;;5073485;28;20162;-66
2021/10/24 04:08:28;;;;;;;8.68;2.20;;;24.70;67.30;;;;;;5072932;28;20051;-70
2021/10/24 04:10:55;;;;;;;16.58;2.95;;;24.80;67.50;;;;;;5073782;28;20029;-62
2021/10/24 04:13:23;;;;;;;7.82;2.50;;;24.60;68.10;;;;;;5072529;28;20028;-66
2021/10/24 04:15:50;;;;;;;10.57;2.10;;;24.60;69.90;;;;;;5072678;28;20032;-65
2021/10/24 04:18:18;;;;;;;15.40;2.88;;;24.60;68.30;;;;;;5071557;28;20137;-63
2021/10/24 04:20:45;;;;;;;7.38;1.98;;;24.70;69.10;;;;;;5072886;28;20112;-64
2021/10/24 04:23:12;;;;;;;15.70;2.78;;;24.60;68.60;;;;;;5072795;28;20407;-65
2021/10/24 04:25:40;;;;;;;13.07;3.00;;;24.70;69.70;;;;;;5073074;28;20100;-64
2021/10/24 04:28:07;;;;;;;8.13;2.35;;;24.80;70.90;;;;;;5072071;28;20052;-62
2021/10/24 04:30:35;;;;;;;11.55;2.60;;;24.70;68.30;;;;;;5072301;28;20039;-62
2021/10/24 04:33:02;;;;;;;11.68;2.35;;;24.80;69.40;;;;;;5072570;28;20028;-64
2021/10/24 04:35:29;;;;;;;6.78;1.67;;;24.80;69.10;;;;;;5072692;28;20029;-64
2021/10/24 04:37:57;;;;;;;18.55;2.20;;;24.90;69.00;;;;;;5072151;28;20459;-66
2021/10/24 04:40:24;;;;;;;9.20;2.22;;;24.70;64.00;;;;;;5070488;28;20041;-65
2021/10/24 04:42:51;;;;;;;8.65;2.35;;;24.80;67.70;;;;;;5071716;28;20028;-64
2021/10/24 04:45:19;;;;;;;8.32;1.98;;;24.80;67.80;;;;;;5072351;28;20035;-64
2021/10/24 04:47:46;;;;;;;16.52;2.13;;;24.70;66.10;;;;;;5072161;28;20387;-62
2021/10/24 04:50:17;;;;;;;15.80;2.40;;;24.80;69.10;;;;;;5072252;28;20467;-64
2021/10/24 04:52:44;;;;;;;14.73;3.05;;;24.80;66.70;;;;;;5070776;28;20044;-63
2021/10/24 04:55:12;;;;;;;10.70;2.53;;;24.90;67.10;;;;;;5072962;28;20028;-68
2021/10/24 04:57:40;;;;;;;10.50;2.65;;;24.80;68.70;;;;;;5072225;28;20021;-64
2021/10/24 05:00:08;;;;;;;10.15;2.20;;;24.80;65.20;;;;;;5071326;28;20115;-65
2021/10/24 05:02:36;;;;;;;15.35;3.17;;;24.80;66.00;;;;;;5071835;28;20042;-66
2021/10/24 05:05:04;;;;;;;15.13;3.13;;;24.70;67.20;;;;;;5072317;28;20066;-63
2021/10/24 05:07:31;;;;;;;9.75;2.60;;;24.70;68.50;;;;;;5072127;28;20471;-65
2021/10/24 05:09:59;;;;;;;15.73;3.67;;;24.70;66.80;;;;;;5071842;28;20414;-67
2021/10/24 05:12:27;;;;;;;14.93;4.72;;;24.70;64.60;;;;;;5072088;28;20046;-64
2021/10/24 05:14:54;;;;;;;12.13;4.13;;;24.70;65.50;;;;;;5072553;28;20102;-66
2021/10/24 05:17:21;;;;;;;19.95;6.60;;;24.60;64.00;;;;;;5072644;28;20102;-65
2021/10/24 05:19:49;;;;;;;13.63;4.05;;;24.70;63.60;;;;;;5072780;28;20028;-66
2021/10/24 05:22:16;;;;;;;27.00;4.72;;;24.60;62.50;;;;;;5069947;28;20496;-64
2021/10/24 05:24:43;;;;;;;19.13;4.03;;;24.40;63.30;;;;;;5073120;28;20032;-68
2021/10/24 05:27:11;;;;;;;11.68;3.17;;;23.50;65.90;;;;;;5071916;28;20099;-68
2021/10/24 05:29:38;;;;;;;17.92;5.03;;;23.10;66.20;;;;;;5071188;28;20024;-67
2021/10/24 05:32:06;;;;;;;22.45;5.82;;;23.10;65.60;;;;;;5072471;28;20024;-66
2021/10/24 05:34:33;;;;;;;27.83;15.45;;;23.50;66.50;;;;;;5071704;28;20024;-52
2021/10/24 05:37:01;;;;;;;17.52;7.15;;;23.70;66.50;;;;;;5071899;28;20029;-61
2021/10/24 05:39:28;;;;;;;21.85;8.30;;;23.90;65.00;;;;;;5072093;28;20021;-63
2021/10/24 05:41:55;;;;;;;16.85;7.30;;;24.00;64.50;;;;;;5072166;28;20028;-60
2021/10/24 05:44:23;;;;;;;24.80;10.80;;;24.00;64.50;;;;;;5072531;28;20027;-58
2021/10/24 05:46:53;;;;;;;21.60;6.25;;;24.10;63.20;;;;;;5072751;28;20500;-63
2021/10/24 05:49:21;;;;;;;22.48;11.95;;;24.00;64.30;;;;;;5072875;28;20466;-62
2021/10/24 05:51:49;;;;;;;18.52;5.32;;;23.90;63.30;;;;;;5072957;28;20037;-60
2021/10/24 05:54:16;;;;;;;21.27;8.00;;;23.90;64.20;;;;;;5072388;28;20024;-59
2021/10/24 05:56:43;;;;;;;17.77;5.97;;;23.90;63.70;;;;;;5072266;28;20020;-55
2021/10/24 05:59:11;;;;;;;22.23;5.60;;;23.90;63.70;;;;;;5072943;28;20130;-59
2021/10/24 06:01:38;;;;;;;13.27;4.45;;;23.80;63.50;;;;;;5065516;28;20552;-64
2021/10/24 06:04:05;;;;;;;16.92;5.03;;;23.80;64.30;;;;;;5068236;28;20028;-69
2021/10/24 06:06:33;;;;;;;10.55;3.72;;;23.50;64.40;;;;;;5067969;28;20029;-60
2021/10/24 06:09:01;;;;;;;14.30;3.47;;;23.00;64.30;;;;;;5068250;28;20094;-63
2021/10/24 06:11:35;;;;;;;10.82;3.92;;;22.80;59.40;;;;;;5069608;28;20107;-62
2021/10/24 06:14:03;;;;;;;8.02;2.40;;;23.00;63.80;;;;;;5071998;28;20028;-60
2021/10/24 06:16:30;;;;;;;11.93;3.15;;;22.80;57.80;;;;;;5071779;28;20112;-62
2021/10/24 06:18:58;;;;;;;9.73;2.90;;;22.60;66.50;;;;;;5069751;28;20085;-63
2021/10/24 06:21:25;;;;;;;8.48;2.83;;;22.60;66.50;;;;;;5072066;28;20444;-61
2021/10/24 06:23:53;;;;;;;6.32;2.30;;;22.60;64.10;;;;;;5071552;28;20025;-60
2021/10/24 06:26:20;;;;;;;12.10;2.45;;;22.50;60.40;;;;;;5071068;28;20033;-58
2021/10/24 06:28:47;;;;;;;13.88;2.55;;;22.40;59.70;;;;;;5066049;28;20039;-63
2021/10/24 06:31:15;;;;;;;19.20;2.35;;;22.20;66.30;;;;;;5071981;28;20032;-62
2021/10/24 06:33:42;;;;;;;23.08;3.75;;;22.50;65.60;;;;;;5071651;28;20016;-64
2021/10/24 06:36:16;;;;;;;21.33;3.38;;;22.70;69.00;;;;;;5072078;28;20036;-66
2021/10/24 06:38:44;;;;;;;17.67;4.10;;;22.90;67.20;;;;;;5067747;28;20041;-66
2021/10/24 06:41:11;;;;;;;8.18;1.95;;;22.60;67.80;;;;;;5053687;28;20044;-69
2021/10/24 06:43:38;;;;;;;11.68;2.22;;;22.60;65.50;;;;;;5068831;28;20454;-61
2021/10/24 06:46:05;;;;;;;30.40;2.90;;;22.40;59.60;;;;;;5071091;28;20032;-62
2021/10/24 06:48:33;;;;;;;7.18;1.88;;;22.50;67.90;;;;;;5066839;28;20028;-63
2021/10/24 06:51:00;;;;;;;10.48;2.35;;;22.50;67.40;;;;;;5070438;28;20028;-67
2021/10/24 06:53:27;;;;;;;9.75;2.38;;;22.60;68.70;;;;;;5071059;28;20462;-65
2021/10/24 06:55:55;;;;;;;10.57;2.53;;;22.40;64.90;;;;;;5070923;28;20035;-66
2021/10/24 06:58:22;;;;;;;10.45;2.50;;;22.30;66.90;;;;;;5067395;28;20048;-61
2021/10/24 07:00:50;;;;;;;11.23;2.40;;;22.40;69.80;;;;;;5069264;28;20028;-62
2021/10/24 07:03:19;;;;;;;8.05;2.22;;;22.70;69.40;;;;;;5067789;28;20059;-63
2021/10/24 07:05:46;;;;;;;8.85;1.95;;;22.40;61.40;;;;;;5068515;28;20479;-65
2021/10/24 07:08:14;;;;;;;13.52;2.65;;;22.70;69.20;;;;;;5066421;28;20047;-62
2021/10/24 07:10:41;;;;;;;7.93;1.98;;;22.60;62.50;;;;;;5070809;28;20029;-59
2021/10/24 07:13:08;;;;;;;11.73;1.92;;;22.70;66.10;;;;;;5070954;28;20411;-61
2021/10/24 07:15:36;;;;;;;7.68;2.28;;;22.40;62.90;;;;;;5071206;28;20047;-63
2021/10/24 07:18:03;;;;;;;9.57;2.13;;;22.00;69.10;;;;;;5066698;28;20483;-63
2021/10/24 07:20:31;;;;;;;6.35;2.17;;;21.90;62.20;;;;;;5071202;28;20127;-64
2021/10/24 07:22:58;;;;;;;13.95;2.25;;;21.70;68.30;;;;;;5070222;28;20063;-56
2021/10/24 07:25:25;;;;;;;9.35;1.63;;;21.90;69.00;;;;;;5070833;28;20182;-53
2021/10/24 07:27:53;;;;;;;8.57;2.22;;;22.30;67.70;;;;;;5067330;28;20041;-50
2021/10/24 07:30:23;;;;;;;9.20;1.70;;;22.50;66.50;;;;;;5071155;28;20032;-48
2021/10/24 07:32:50;;;;;;;6.85;1.80;;;22.70;65.10;;;;;;5071046;28;20032;-58
2021/10/24 07:35:18;;;;;;;5.68;1.58;;;22.70;64.90;;;;;;5070580;28;20016;-65
2021/10/24 07:37:46;;;;;;;4.38;1.50;;;22.70;65.30;;;;;;5065508;28;20032;-64
2021/10/24 07:40:14;;;;;;;5.32;1.67;;;22.70;65.50;;;;;;5071953;28;20548;-67
2021/10/24 07:42:45;;;;;;;4.32;1.45;;;22.70;65.50;;;;;;5072466;28;20032;-67
2021/10/24 07:45:12;;;;;;;5.10;1.80;;;22.70;65.60;;;;;;5071505;28;20025;-63
2021/10/24 07:47:41;;;;;;;7.15;1.60;;;22.70;65.70;;;;;;5070660;28;20802;-67
2021/10/24 07:50:11;;;;;;;10.60;1.92;;;22.70;66.10;;;;;;5072801;28;20158;-66
2021/10/24 07:52:39;;;;;;;8.45;2.35;;;22.70;66.90;;;;;;5070423;28;20381;-62
2021/10/24 07:55:13;;;;;;;7.13;1.83;;;22.70;67.50;;;;;;5072215;28;20023;-65
2021/10/24 07:57:40;;;;;;;11.15;1.83;;;22.60;67.40;;;;;;5067545;28;21264;-61
2021/10/24 08:00:08;;;;;;;4.40;1.50;;;22.60;66.90;;;;;;5069088;28;20040;-64
2021/10/24 08:02:36;;;;;;;4.43;1.63;;;22.60;66.70;;;;;;5070637;28;20031;-66
2021/10/24 08:05:06;;;;;;;5.40;1.55;;;22.60;66.80;;;;;;5070425;28;20502;-60
2021/10/24 08:07:39;;;;;;;4.85;1.52;;;22.50;66.50;;;;;;5066689;28;20048;-59
2021/10/24 08:10:08;;;;;;;4.22;1.33;;;22.50;66.80;;;;;;5070408;28;20035;-55
2021/10/24 08:12:38;;;;;;;5.10;1.88;;;22.50;68.10;;;;;;5068975;28;20058;-60
2021/10/24 08:15:07;;;;;;;3.33;1.27;;;22.50;68.00;;;;;;5068875;28;20021;-61
2021/10/24 08:17:36;;;;;;;4.18;1.60;;;22.40;67.90;;;;;;5065555;28;20059;-62
2021/10/24 08:20:05;;;;;;;6.22;1.45;;;22.40;67.80;;;;;;5068865;28;20032;-63
2021/10/24 08:22:33;;;;;;;2.75;1.33;;;22.40;67.30;;;;;;5067653;28;20032;-64
2021/10/24 08:25:01;;;;;;;6.15;1.73;;;22.40;67.50;;;;;;5069334;28;20021;-62
2021/10/24 08:27:33;;;;;;;4.03;1.77;;;22.30;67.60;;;;;;5064618;28;20047;-62
2021/10/24 08:30:02;;;;;;;;;;;22.30;67.40;;;;;;5068548;28;20112;-63
2021/10/24 08:32:29;;;;;;;6.13;1.50;;;22.30;67.80;;;;;;5069628;28;19904;-64
2021/10/24 08:34:57;;;;;;;9.05;1.55;;;22.30;67.80;;;;;;5067751;28;20025;-62
2021/10/24 08:37:25;;;;;;;5.10;1.48;;;22.20;67.60;;;;;;5067945;28;20191;-62
2021/10/24 08:39:56;;;;;;;3.72;1.27;;;22.20;67.10;;;;;;5068302;28;20024;-62
2021/10/24 08:42:31;;;;;;;5.90;1.67;;;22.20;67.20;;;;;;5069420;28;20394;-62
2021/10/24 08:45:02;;;;;;;7.85;1.50;;;22.20;67.90;;;;;;5066609;28;20434;-65
2021/10/24 08:47:30;;;;;;;4.90;1.27;;;22.10;68.10;;;;;;5064993;28;20032;-60
2021/10/24 08:49:57;;;;;;;7.43;1.38;;;22.10;67.80;;;;;;5065285;28;20039;-63
2021/10/24 08:52:26;;;;;;;3.63;1.48;;;22.10;67.60;;;;;;5069336;28;20044;-61
2021/10/24 08:54:55;;;;;;;9.05;1.70;;;22.10;67.50;;;;;;5067327;28;20035;-60
2021/10/24 08:57:27;;;;;;;5.78;1.50;;;22.10;67.50;;;;;;5064680;28;20035;-60
2021/10/24 08:59:55;;;;;;;5.43;1.58;;;22.10;67.60;;;;;;5064875;28;20606;-63
2021/10/24 09:02:25;;;;;;;7.95;1.42;;;22.10;68.00;;;;;;5066591;28;20033;-64
2021/10/24 09:04:56;;;;;;;6.22;2.15;;;22.10;67.90;;;;;;5067886;28;20393;-62
2021/10/24 09:07:37;;;;;;;5.47;1.60;;;22.10;67.90;;;;;;5065135;28;20900;-58
2021/10/24 09:10:09;;;;;;;3.00;1.30;;;22.10;67.90;;;;;;5066962;28;20036;-62
2021/10/24 09:12:36;;;;;;;3.50;1.48;;;22.00;67.70;;;;;;5065462;28;20032;-59
2021/10/24 09:15:06;;;;;;;4.65;1.48;;;22.00;67.60;;;;;;5068861;28;20488;-62
2021/10/24 09:17:35;;;;;;;3.47;1.23;;;22.00;67.70;;;;;;5065628;28;20478;-59
2021/10/24 09:20:06;;;;;;;3.47;1.20;;;22.00;67.60;;;;;;5067460;28;20198;-62
2021/10/24 09:22:41;;;;;;;2.77;1.37;;;22.00;67.20;;;;;;5068607;28;20200;-61
2021/10/24 09:25:22;;;;;;;4.18;1.33;;;22.00;67.20;;;;;;5069065;28;20413;-61
2021/10/24 09:27:59;;;;;;;4.85;1.42;;;22.00;67.40;;;;;;5063666;28;21555;-62
2021/10/24 09:30:34;;;;;;;4.45;1.45;;;21.90;67.70;;;;;;5066019;28;20036;-59
2021/10/24 09:33:09;;;;;;;2.88;1.40;;;22.00;67.90;;;;;;5068091;28;20024;-61
2021/10/24 09:35:40;;;;;;;4.78;1.30;;;21.90;67.70;;;;;;5068189;28;20024;-59
2021/10/24 09:38:38;;;;;;;3.40;1.40;;;21.90;67.70;;;;;;5064988;28;20024;-59
2021/10/24 09:41:05;;;;;;;6.68;1.33;;;21.90;67.90;;;;;;5067742;28;20523;-63
2021/10/24 09:43:33;;;;;;;4.80;1.45;;;21.90;68.30;;;;;;5068447;28;20025;-65
2021/10/24 09:46:02;;;;;;;4.53;1.45;;;21.90;68.60;;;;;;5068364;28;20058;-62
2021/10/24 09:48:32;;;;;;;2.58;1.10;;;21.80;68.60;;;;;;5068915;28;20055;-62
2021/10/24 09:51:03;;;;;;;5.25;1.23;;;21.80;69.00;;;;;;5072844;28;20032;-64
2021/10/24 09:53:38;;;;;;;4.70;2.00;;;21.80;69.40;;;;;;5071578;28;20074;-62
2021/10/24 09:56:13;;;;;;;4.57;1.40;;;21.80;69.30;;;;;;5073104;28;20021;-67
2021/10/24 09:58:45;;;;;;;2.75;1.23;;;21.70;69.50;;;;;;5067198;28;20032;-67
2021/10/24 10:01:15;;;;;;;5.18;1.30;;;21.70;69.80;;;;;;5073095;28;20040;-69
2021/10/24 10:03:45;;;;;;;5.75;1.55;;;21.70;70.00;;;;;;5072610;28;20160;-66
2021/10/24 10:06:12;;;;;;;4.13;1.25;;;21.60;70.50;;;;;;5072478;28;20028;-65
2021/10/24 10:08:43;;;;;;;3.65;1.30;;;21.60;70.50;;;;;;5068208;28;20517;-62
2021/10/24 10:11:23;;;;;;;4.68;1.55;;;21.60;70.90;;;;;;5072693;28;20025;-62
2021/10/24 10:14:19;;;;;;;3.10;1.10;;;21.60;70.90;;;;;;5071083;28;20025;-64
2021/10/24 10:16:59;;;;;;;3.78;1.70;;;21.50;71.00;;;;;;5063481;28;20543;-66
2021/10/24 10:19:30;;;;;;;5.18;1.55;;;21.50;71.30;;;;;;5067928;28;20120;-60
2021/10/24 10:22:21;;;;;;;3.38;1.45;;;21.40;71.30;;;;;;5072534;28;20032;-62
2021/10/24 10:25:08;;;;;;;3.63;1.42;;;21.50;71.70;;;;;;5071669;28;20462;-61
2021/10/24 10:27:40;;;;;;;3.30;1.42;;;21.40;71.30;;;;;;5069636;28;20093;-62
2021/10/24 10:30:38;;;;;;;5.50;1.48;;;21.30;72.30;;;;;;5071082;28;20426;-62
2021/10/24 10:33:30;;;;;;;3.45;1.33;;;21.30;72.30;;;;;;5070114;28;20035;-63
2021/10/24 10:35:58;;;;;;;1.80;1.00;;;21.30;72.70;;;;;;5071880;28;20552;-61
2021/10/24 10:38:45;;;;;;;4.40;1.48;;;21.30;72.90;;;;;;5066776;28;20029;-63
2021/10/24 10:41:15;;;;;;;4.90;1.50;;;21.20;73.10;;;;;;5070423;28;20074;-62
2021/10/24 10:44:07;;;;;;;3.45;1.13;;;21.20;73.10;;;;;;5071366;28;20024;-64
2021/10/24 10:46:35;;;;;;;2.20;1.23;;;21.20;73.40;;;;;;5068993;28;20119;-63
2021/10/24 10:49:22;;;;;;;4.45;1.60;;;21.10;73.30;;;;;;5066047;28;20017;-62
2021/10/24 10:51:53;;;;;;;3.88;1.40;;;21.10;73.50;;;;;;5060507;28;20047;-61
2021/10/24 10:54:20;;;;;;;6.13;1.33;;;21.10;73.70;;;;;;5071296;28;20063;-58
2021/10/24 10:56:54;;;;;;;4.90;1.48;;;21.10;73.90;;;;;;5070558;28;20347;-61
2021/10/24 10:59:35;;;;;;;2.65;1.10;;;21.10;73.90;;;;;;5067235;28;20032;-63
2021/10/24 11:02:27;;;;;;;2.50;1.05;;;21.00;74.10;;;;;;5071571;28;20040;-59
2021/10/24 11:04:57;;;;;;;4.80;1.37;;;21.00;74.20;;;;;;5069361;28;20566;-60
2021/10/24 11:07:41;;;;;;;4.20;1.63;;;21.00;74.30;;;;;;5067395;28;20024;-62
2021/10/24 11:10:17;;;;;;;4.35;1.27;;;21.00;74.40;;;;;;5070290;28;20021;-62
2021/10/24 11:12:47;;;;;;;3.22;0.90;;;21.00;74.80;;;;;;5069921;28;20142;-61
2021/10/24 11:15:25;;;;;;;5.53;1.52;;;20.90;74.90;;;;;;5070659;28;20044;-61
2021/10/24 11:17:53;;;;;;;3.42;1.10;;;21.00;75.10;;;;;;5067244;28;20044;-63
2021/10/24 11:20:48;;;;;;;2.58;1.20;;;20.90;75.30;;;;;;5070915;28;20439;-58
2021/10/24 11:23:17;;;;;;;3.88;1.50;;;20.90;75.40;;;;;;5070238;28;20040;-60
2021/10/24 11:25:45;;;;;;;2.35;1.02;;;20.80;75.50;;;;;;5069027;28;20446;-61
2021/10/24 11:28:18;;;;;;;2.33;0.80;;;20.90;75.50;;;;;;5066676;28;20108;-60
2021/10/24 11:30:54;;;;;;;6.18;1.33;;;20.80;76.30;;;;;;5071019;28;20029;-63
2021/10/24 11:33:22;;;;;;;4.25;1.40;;;20.90;75.80;;;;;;5069928;28;20459;-63
2021/10/24 11:35:49;;;;;;;2.97;1.33;;;20.80;75.90;;;;;;5070849;28;20043;-66
2021/10/24 11:38:17;;;;;;;4.22;1.63;;;20.80;75.90;;;;;;5067728;28;20052;-60
2021/10/24 11:40:51;;;;;;;3.25;1.20;;;20.80;75.90;;;;;;5070360;28;20074;-60
2021/10/24 11:43:23;;;;;;;4.38;1.20;;;20.80;76.10;;;;;;5069479;28;20256;-59
2021/10/24 11:45:53;;;;;;;3.53;1.30;;;20.70;76.20;;;;;;5070599;28;20032;-60
2021/10/24 11:48:26;;;;;;;2.05;1.00;;;20.70;76.40;;;;;;5064764;28;20020;-61
2021/10/24 11:50:58;;;;;;;2.53;1.02;;;20.70;76.30;;;;;;5070633;28;20489;-61
2021/10/24 11:53:34;;;;;;;2.28;1.08;;;20.70;76.50;;;;;;5070584;28;20044;-55
2021/10/24 11:56:07;;;;;;;3.40;1.30;;;20.70;76.40;;;;;;5070350;28;20467;-59
2021/10/24 12:01:28;;;;;;;1.90;1.00;;;20.70;76.50;;;;;;5070472;28;20039;-60
2021/10/24 12:04:05;;;;;;;3.42;1.13;;;20.70;76.60;;;;;;5069917;28;20093;-58
2021/10/24 12:07:01;;;;;;;4.45;1.00;;;20.70;76.60;;;;;;5066346;28;20028;-61
2021/10/24 12:09:42;;;;;;;3.13;1.05;;;20.60;76.60;;;;;;5063681;28;20021;-69
2021/10/24 12:12:20;;;;;;;1.92;1.10;;;20.60;76.80;;;;;;5069795;28;20070;-66
2021/10/24 12:15:05;;;;;;;3.00;1.10;;;20.60;76.70;;;;;;5069547;28;20060;-65
2021/10/24 12:17:39;;;;;;;1.65;0.85;;;20.60;76.70;;;;;;5072400;28;20052;-63
2021/10/24 12:20:28;;;;;;;5.43;1.80;;;20.60;76.50;;;;;;5072910;28;20055;-63
2021/10/24 12:23:02;;;;;;;3.30;1.55;;;20.60;76.40;;;;;;5072755;28;20040;-62
2021/10/24 12:25:39;;;;;;;12.00;1.33;;;20.60;76.50;;;;;;5072629;28;20047;-63
2021/10/24 12:28:21;;;;;;;3.35;1.08;;;20.50;76.40;;;;;;5071669;28;20301;-62
2021/10/24 12:30:57;;;;;;;2.95;1.02;;;20.50;76.50;;;;;;5072336;28;20024;-63
2021/10/24 12:33:36;;;;;;;3.08;0.73;;;20.50;76.40;;;;;;5072721;28;20032;-64
2021/10/24 12:36:09;;;;;;;2.67;0.88;;;20.50;76.20;;;;;;5072827;28;20103;-64
2021/10/24 12:38:56;;;;;;;3.60;1.42;;;20.50;76.20;;;;;;5072566;28;20029;-64
2021/10/24 12:41:52;;;;;;;2.10;1.20;;;20.50;76.20;;;;;;5071281;28;20036;-62
2021/10/24 12:44:23;;;;;;;3.70;1.10;;;20.40;76.60;;;;;;5059894;28;20394;-62
2021/10/24 12:46:52;;;;;;;3.10;1.30;;;20.40;75.90;;;;;;5072673;28;20028;-61
2021/10/24 12:49:24;;;;;;;3.30;1.30;;;20.40;75.90;;;;;;5072345;28;20206;-64
2021/10/24 12:52:10;;;;;;;3.50;1.10;;;20.40;75.90;;;;;;5072620;28;20487;-61
2021/10/24 12:54:37;;;;;;;3.38;0.90;;;20.30;75.60;;;;;;5072527;28;20668;-63
2021/10/24 12:57:08;;;;;;;2.88;1.30;;;20.30;75.90;;;;;;5072542;28;20032;-62
2021/10/24 12:59:35;;;;;;;2.78;1.23;;;20.30;75.70;;;;;;5072108;28;20078;-63
2021/10/24 13:02:09;;;;;;;2.55;1.13;;;20.30;75.50;;;;;;5072714;28;20040;-62